sensor_id;sensor_type;location;lat;lon;timestamp;P1;durP1;ratioP1;P2;durP2;ratioP2
52342;SDS011;38277;51.972;4.624;2023-04-08T00:02:36;18.3;;;9.1;;
52342;SDS011;38277;51.972;4.624;2023-04-08T00:08:38;20.7;;;10.8;;
52342;SDS011;38277;51.972;4.624;2023-04-08T00:17:41;21.4;;;10.5;;
52342;SDS011;38277;51.972;4.624;2023-04-08T00:25:24;19.4;;;10.5;;
52342;SDS011;38277;51.972;4.624;2023-04-08T00:28:25;22.1;;;11.1;;
52342;SDS011;38277;51.972;4.624;2023-04-08T00:31:26;25.3;;;12.2;;
52342;SDS011;38277;51.972;4.624;2023-04-08T00:35:37;21.8;;;12.1;;
52342;SDS011;38277;51.972;4.624;2023-04-08T00:40:13;25.2;;;12.9;;
52342;SDS011;38277;51.972;4.624;2023-04-08T00:49:21;23.3;;;13.1;;
52342;SDS011;38277;51.972;4.624;2023-04-08T00:53:31;23.2;;;13.1;;
52342;SDS011;38277;51.972;4.624;2023-04-08T00:57:56;22.6;;;13.0;;
52342;SDS011;38277;51.972;4.624;2023-04-08T01:03:06;28.5;;;16.6;;
52342;SDS011;38277;51.972;4.624;2023-04-08T01:07:26;26.4;;;15.8;;
52342;SDS011;38277;51.972;4.624;2023-04-08T01:11:31;27.5;;;16.4;;
52342;SDS011;38277;51.972;4.624;2023-04-08T01:16:14;26.9;;;16.7;;
52342;SDS011;38277;51.972;4.624;2023-04-08T01:25:16;29.1;;;18.0;;
52342;SDS011;38277;51.972;4.624;2023-04-08T01:29:40;29.6;;;17.7;;
52342;SDS011;38277;51.972;4.624;2023-04-08T01:34:24;32.6;;;17.5;;
52342;SDS011;38277;51.972;4.624;2023-04-08T01:38:42;27.9;;;16.0;;
52342;SDS011;38277;51.972;4.624;2023-04-08T01:42:57;28.1;;;17.4;;
52342;SDS011;38277;51.972;4.624;2023-04-08T01:47:51;27.0;;;16.2;;
52342;SDS011;38277;51.972;4.624;2023-04-08T01:52:09;29.5;;;17.7;;
52342;SDS011;38277;51.972;4.624;2023-04-08T02:01:20;27.7;;;16.2;;
52342;SDS011;38277;51.972;4.624;2023-04-08T02:05:28;29.0;;;16.2;;
52342;SDS011;38277;51.972;4.624;2023-04-08T02:10:20;26.8;;;15.4;;
52342;SDS011;38277;51.972;4.624;2023-04-08T02:14:30;26.0;;;15.2;;
52342;SDS011;38277;51.972;4.624;2023-04-08T02:19:17;26.8;;;15.4;;
52342;SDS011;38277;51.972;4.624;2023-04-08T02:23:50;25.5;;;14.2;;
52342;SDS011;38277;51.972;4.624;2023-04-08T02:28:02;28.8;;;16.7;;
52342;SDS011;38277;51.972;4.624;2023-04-08T02:37:00;26.5;;;15.1;;
52342;SDS011;38277;51.972;4.624;2023-04-08T02:41:52;24.9;;;14.7;;
52342;SDS011;38277;51.972;4.624;2023-04-08T02:46:00;27.3;;;15.2;;
52342;SDS011;38277;51.972;4.624;2023-04-08T02:50:52;22.4;;;13.0;;
52342;SDS011;38277;51.972;4.624;2023-04-08T02:55:18;24.9;;;13.4;;
52342;SDS011;38277;51.972;4.624;2023-04-08T02:59:36;24.1;;;13.5;;
52342;SDS011;38277;51.972;4.624;2023-04-08T03:04:07;27.7;;;15.6;;
52342;SDS011;38277;51.972;4.624;2023-04-08T03:13:12;27.3;;;15.7;;
52342;SDS011;38277;51.972;4.624;2023-04-08T03:17:52;27.1;;;15.1;;
52342;SDS011;38277;51.972;4.624;2023-04-08T03:22:07;30.5;;;18.1;;
52342;SDS011;38277;51.972;4.624;2023-04-08T03:26:42;29.5;;;16.0;;
52342;SDS011;38277;51.972;4.624;2023-04-08T03:31:16;33.0;;;20.1;;
52342;SDS011;38277;51.972;4.624;2023-04-08T03:35:31;34.8;;;19.9;;
52342;SDS011;38277;51.972;4.624;2023-04-08T03:40:09;32.9;;;18.9;;
52342;SDS011;38277;51.972;4.624;2023-04-08T03:49:23;30.6;;;18.6;;
52342;SDS011;38277;51.972;4.624;2023-04-08T03:53:44;33.2;;;18.2;;
52342;SDS011;38277;51.972;4.624;2023-04-08T03:58:16;30.7;;;18.9;;
52342;SDS011;38277;51.972;4.624;2023-04-08T04:11:26;27.3;;;16.1;;
52342;SDS011;38277;51.972;4.624;2023-04-08T04:15:56;24.8;;;15.8;;
52342;SDS011;38277;51.972;4.624;2023-04-08T04:25:09;26.5;;;16.2;;
52342;SDS011;38277;51.972;4.624;2023-04-08T04:29:44;24.2;;;14.7;;
52342;SDS011;38277;51.972;4.624;2023-04-08T04:34:14;23.6;;;14.0;;
52342;SDS011;38277;51.972;4.624;2023-04-08T04:38:28;23.0;;;13.0;;
52342;SDS011;38277;51.972;4.624;2023-04-08T04:43:13;18.4;;;11.2;;
52342;SDS011;38277;51.972;4.624;2023-04-08T04:47:49;19.8;;;11.5;;
52342;SDS011;38277;51.972;4.624;2023-04-08T04:52:01;20.4;;;11.5;;
52342;SDS011;38277;51.972;4.624;2023-04-08T05:00:58;18.1;;;11.0;;
52342;SDS011;38277;51.972;4.624;2023-04-08T05:05:41;15.3;;;9.1;;
52342;SDS011;38277;51.972;4.624;2023-04-08T05:10:12;15.2;;;9.1;;
52342;SDS011;38277;51.972;4.624;2023-04-08T05:14:53;15.3;;;9.1;;
52342;SDS011;38277;51.972;4.624;2023-04-08T05:19:23;17.8;;;10.6;;
52342;SDS011;38277;51.972;4.624;2023-04-08T05:23:39;15.4;;;9.6;;
52342;SDS011;38277;51.972;4.624;2023-04-08T05:27:57;16.0;;;9.7;;
52342;SDS011;38277;51.972;4.624;2023-04-08T05:37:22;18.0;;;10.4;;
52342;SDS011;38277;51.972;4.624;2023-04-08T05:41:45;16.2;;;10.2;;
52342;SDS011;38277;51.972;4.624;2023-04-08T05:46:15;16.3;;;9.7;;
52342;SDS011;38277;51.972;4.624;2023-04-08T05:50:42;17.7;;;10.6;;
52342;SDS011;38277;51.972;4.624;2023-04-08T05:55:14;16.9;;;10.5;;
52342;SDS011;38277;51.972;4.624;2023-04-08T05:59:45;17.3;;;10.5;;
52342;SDS011;38277;51.972;4.624;2023-04-08T06:04:11;19.8;;;12.2;;
52342;SDS011;38277;51.972;4.624;2023-04-08T06:13:04;19.4;;;11.7;;
52342;SDS011;38277;51.972;4.624;2023-04-08T06:17:30;18.7;;;12.0;;
52342;SDS011;38277;51.972;4.624;2023-04-08T06:22:10;19.8;;;13.0;;
52342;SDS011;38277;51.972;4.624;2023-04-08T06:26:37;19.9;;;12.4;;
52342;SDS011;38277;51.972;4.624;2023-04-08T06:31:18;20.9;;;13.4;;
52342;SDS011;38277;51.972;4.624;2023-04-08T06:35:33;21.8;;;13.9;;
52342;SDS011;38277;51.972;4.624;2023-04-08T06:40:08;22.1;;;14.1;;
52342;SDS011;38277;51.972;4.624;2023-04-08T06:48:59;26.3;;;16.3;;
52342;SDS011;38277;51.972;4.624;2023-04-08T06:53:43;23.4;;;14.7;;
52342;SDS011;38277;51.972;4.624;2023-04-08T06:58:22;23.3;;;14.8;;
52342;SDS011;38277;51.972;4.624;2023-04-08T07:02:39;26.1;;;16.3;;
52342;SDS011;38277;51.972;4.624;2023-04-08T07:07:15;27.3;;;17.1;;
52342;SDS011;38277;51.972;4.624;2023-04-08T07:11:34;27.8;;;17.1;;
52342;SDS011;38277;51.972;4.624;2023-04-08T07:16:05;27.9;;;17.7;;
52342;SDS011;38277;51.972;4.624;2023-04-08T07:22:07;32.6;;;20.7;;
52342;SDS011;38277;51.972;4.624;2023-04-08T07:25:12;30.6;;;19.8;;
52342;SDS011;38277;51.972;4.624;2023-04-08T07:29:31;28.9;;;18.4;;
52342;SDS011;38277;51.972;4.624;2023-04-08T07:33:56;30.5;;;18.5;;
52342;SDS011;38277;51.972;4.624;2023-04-08T07:38:35;31.5;;;19.5;;
52342;SDS011;38277;51.972;4.624;2023-04-08T07:43:22;31.6;;;19.9;;
52342;SDS011;38277;51.972;4.624;2023-04-08T07:47:51;34.0;;;21.9;;
52342;SDS011;38277;51.972;4.624;2023-04-08T07:52:02;33.2;;;21.5;;
52342;SDS011;38277;51.972;4.624;2023-04-08T07:56:31;34.0;;;22.7;;
52342;SDS011;38277;51.972;4.624;2023-04-08T08:01:04;33.4;;;22.2;;
52342;SDS011;38277;51.972;4.624;2023-04-08T08:05:38;33.3;;;22.2;;
52342;SDS011;38277;51.972;4.624;2023-04-08T08:10:17;34.6;;;22.7;;
52342;SDS011;38277;51.972;4.624;2023-04-08T08:14:32;34.9;;;21.8;;
52342;SDS011;38277;51.972;4.624;2023-04-08T08:19:09;37.7;;;22.7;;
52342;SDS011;38277;51.972;4.624;2023-04-08T08:23:28;34.8;;;22.8;;
52342;SDS011;38277;51.972;4.624;2023-04-08T08:28:10;31.7;;;21.1;;
52342;SDS011;38277;51.972;4.624;2023-04-08T08:32:38;32.7;;;22.3;;
52342;SDS011;38277;51.972;4.624;2023-04-08T08:37:05;34.6;;;21.8;;
52342;SDS011;38277;51.972;4.624;2023-04-08T08:41:53;32.8;;;22.2;;
52342;SDS011;38277;51.972;4.624;2023-04-08T08:46:20;31.6;;;20.9;;
52342;SDS011;38277;51.972;4.624;2023-04-08T08:50:34;30.1;;;20.3;;
52342;SDS011;38277;51.972;4.624;2023-04-08T08:55:18;26.8;;;18.3;;
52342;SDS011;38277;51.972;4.624;2023-04-08T08:59:53;28.3;;;19.5;;
52342;SDS011;38277;51.972;4.624;2023-04-08T09:04:08;24.8;;;17.6;;
52342;SDS011;38277;51.972;4.624;2023-04-08T09:08:54;26.6;;;18.6;;
52342;SDS011;38277;51.972;4.624;2023-04-08T09:12:59;29.4;;;19.8;;
52342;SDS011;38277;51.972;4.624;2023-04-08T09:22:22;28.2;;;20.1;;
52342;SDS011;38277;51.972;4.624;2023-04-08T09:26:31;29.4;;;21.5;;
52342;SDS011;38277;51.972;4.624;2023-04-08T09:31:28;24.8;;;18.3;;
52342;SDS011;38277;51.972;4.624;2023-04-08T09:35:29;24.2;;;18.0;;
52342;SDS011;38277;51.972;4.624;2023-04-08T09:40:08;24.7;;;17.5;;
52342;SDS011;38277;51.972;4.624;2023-04-08T09:44:39;23.7;;;17.3;;
52342;SDS011;38277;51.972;4.624;2023-04-08T09:49:27;20.6;;;14.8;;
52342;SDS011;38277;51.972;4.624;2023-04-08T09:53:35;19.9;;;13.5;;
52342;SDS011;38277;51.972;4.624;2023-04-08T09:58:00;19.3;;;13.6;;
52342;SDS011;38277;51.972;4.624;2023-04-08T10:02:55;20.4;;;13.8;;
52342;SDS011;38277;51.972;4.624;2023-04-08T10:07:08;19.8;;;14.9;;
52342;SDS011;38277;51.972;4.624;2023-04-08T10:11:31;21.0;;;14.4;;
52342;SDS011;38277;51.972;4.624;2023-04-08T10:16:24;21.6;;;14.9;;
52342;SDS011;38277;51.972;4.624;2023-04-08T10:29:43;18.5;;;12.8;;
52342;SDS011;38277;51.972;4.624;2023-04-08T10:34:15;21.0;;;14.3;;
52342;SDS011;38277;51.972;4.624;2023-04-08T10:38:30;20.2;;;13.4;;
52342;SDS011;38277;51.972;4.624;2023-04-08T10:43:12;19.6;;;13.4;;
52342;SDS011;38277;51.972;4.624;2023-04-08T10:47:30;18.9;;;12.7;;
52342;SDS011;38277;51.972;4.624;2023-04-08T10:52:24;18.8;;;11.7;;
52342;SDS011;38277;51.972;4.624;2023-04-08T11:01:18;18.1;;;12.0;;
52342;SDS011;38277;51.972;4.624;2023-04-08T11:05:27;19.0;;;12.1;;
52342;SDS011;38277;51.972;4.624;2023-04-08T11:10:08;15.6;;;10.5;;
52342;SDS011;38277;51.972;4.624;2023-04-08T11:14:28;16.4;;;10.0;;
52342;SDS011;38277;51.972;4.624;2023-04-08T11:19:16;14.9;;;8.7;;
52342;SDS011;38277;51.972;4.624;2023-04-08T11:23:28;11.8;;;7.5;;
52342;SDS011;38277;51.972;4.624;2023-04-08T11:28:18;12.1;;;7.0;;
52342;SDS011;38277;51.972;4.624;2023-04-08T11:37:18;9.8;;;6.0;;
52342;SDS011;38277;51.972;4.624;2023-04-08T11:41:34;8.2;;;5.8;;
52342;SDS011;38277;51.972;4.624;2023-04-08T11:46:08;7.7;;;5.2;;
52342;SDS011;38277;51.972;4.624;2023-04-08T11:50:47;8.5;;;5.9;;
52342;SDS011;38277;51.972;4.624;2023-04-08T11:54:57;7.6;;;4.9;;
52342;SDS011;38277;51.972;4.624;2023-04-08T11:59:37;8.9;;;4.8;;
52342;SDS011;38277;51.972;4.624;2023-04-08T12:04:05;9.0;;;5.2;;
52342;SDS011;38277;51.972;4.624;2023-04-08T12:13:06;9.4;;;5.7;;
52342;SDS011;38277;51.972;4.624;2023-04-08T12:17:33;10.1;;;4.5;;
52342;SDS011;38277;51.972;4.624;2023-04-08T12:22:19;8.5;;;5.5;;
52342;SDS011;38277;51.972;4.624;2023-04-08T12:31:23;8.4;;;4.9;;
52342;SDS011;38277;51.972;4.624;2023-04-08T12:35:34;6.1;;;4.4;;
52342;SDS011;38277;51.972;4.624;2023-04-08T12:40:17;6.7;;;4.9;;
52342;SDS011;38277;51.972;4.624;2023-04-08T12:49:20;7.1;;;4.1;;
52342;SDS011;38277;51.972;4.624;2023-04-08T12:53:45;4.6;;;3.7;;
52342;SDS011;38277;51.972;4.624;2023-04-08T12:58:24;7.3;;;4.1;;
52342;SDS011;38277;51.972;4.624;2023-04-08T13:02:54;6.1;;;4.4;;
52342;SDS011;38277;51.972;4.624;2023-04-08T13:07:12;5.9;;;3.9;;
52342;SDS011;38277;51.972;4.624;2023-04-08T13:13:06;6.2;;;3.6;;
52342;SDS011;38277;51.972;4.624;2023-04-08T13:16:00;5.8;;;3.9;;
52342;SDS011;38277;51.972;4.624;2023-04-08T13:20:47;6.4;;;4.4;;
52342;SDS011;38277;51.972;4.624;2023-04-08T13:25:02;6.5;;;4.1;;
52342;SDS011;38277;51.972;4.624;2023-04-08T13:31:32;7.1;;;3.9;;
52342;SDS011;38277;51.972;4.624;2023-04-08T13:34:14;7.1;;;4.4;;
52342;SDS011;38277;51.972;4.624;2023-04-08T13:38:55;7.2;;;4.5;;
52342;SDS011;38277;51.972;4.624;2023-04-08T13:43:00;8.5;;;4.7;;
52342;SDS011;38277;51.972;4.624;2023-04-08T13:49:06;7.3;;;4.7;;
52342;SDS011;38277;51.972;4.624;2023-04-08T13:52:16;8.2;;;5.1;;
52342;SDS011;38277;51.972;4.624;2023-04-08T13:56:49;7.1;;;4.8;;
52342;SDS011;38277;51.972;4.624;2023-04-08T14:01:03;9.1;;;5.2;;
52342;SDS011;38277;51.972;4.624;2023-04-08T14:07:06;8.1;;;5.6;;
52342;SDS011;38277;51.972;4.624;2023-04-08T14:09:58;8.9;;;5.4;;
52342;SDS011;38277;51.972;4.624;2023-04-08T14:14:30;8.8;;;5.3;;
52342;SDS011;38277;51.972;4.624;2023-04-08T14:19:21;8.8;;;6.0;;
52342;SDS011;38277;51.972;4.624;2023-04-08T14:25:10;11.1;;;5.7;;
52342;SDS011;38277;51.972;4.624;2023-04-08T14:28:07;8.2;;;5.6;;
52342;SDS011;38277;51.972;4.624;2023-04-08T14:32:46;11.1;;;6.6;;
52342;SDS011;38277;51.972;4.624;2023-04-08T14:37:00;10.4;;;5.8;;
52342;SDS011;38277;51.972;4.624;2023-04-08T14:43:27;11.4;;;6.6;;
52342;SDS011;38277;51.972;4.624;2023-04-08T14:46:05;13.2;;;6.8;;
52342;SDS011;38277;51.972;4.624;2023-04-08T14:50:45;11.4;;;7.1;;
52342;SDS011;38277;51.972;4.624;2023-04-08T14:55:18;13.4;;;8.3;;
52342;SDS011;38277;51.972;4.624;2023-04-08T15:01:15;15.0;;;8.1;;
52342;SDS011;38277;51.972;4.624;2023-04-08T15:04:10;14.1;;;8.2;;
52342;SDS011;38277;51.972;4.624;2023-04-08T15:08:44;15.5;;;9.4;;
52342;SDS011;38277;51.972;4.624;2023-04-08T15:13:24;16.4;;;8.9;;
52342;SDS011;38277;51.972;4.624;2023-04-08T15:19:32;13.4;;;7.6;;
52342;SDS011;38277;51.972;4.624;2023-04-08T15:21:59;14.5;;;7.4;;
52342;SDS011;38277;51.972;4.624;2023-04-08T15:26:32;14.0;;;7.0;;
52342;SDS011;38277;51.972;4.624;2023-04-08T15:31:02;13.5;;;7.1;;
52342;SDS011;38277;51.972;4.624;2023-04-08T15:37:10;13.1;;;7.4;;
52342;SDS011;38277;51.972;4.624;2023-04-08T15:40:13;11.6;;;6.6;;
52342;SDS011;38277;51.972;4.624;2023-04-08T15:44:54;11.1;;;6.0;;
52342;SDS011;38277;51.972;4.624;2023-04-08T15:49:05;10.9;;;6.1;;
52342;SDS011;38277;51.972;4.624;2023-04-08T15:55:15;13.0;;;6.6;;
52342;SDS011;38277;51.972;4.624;2023-04-08T15:58:23;13.1;;;7.7;;
52342;SDS011;38277;51.972;4.624;2023-04-08T16:02:27;12.8;;;7.4;;
52342;SDS011;38277;51.972;4.624;2023-04-08T16:07:15;11.2;;;6.8;;
52342;SDS011;38277;51.972;4.624;2023-04-08T16:13:26;11.1;;;6.1;;
52342;SDS011;38277;51.972;4.624;2023-04-08T16:16:20;9.9;;;5.7;;
52342;SDS011;38277;51.972;4.624;2023-04-08T16:20:47;9.2;;;5.9;;
52342;SDS011;38277;51.972;4.624;2023-04-08T16:25:09;9.9;;;5.8;;
52342;SDS011;38277;51.972;4.624;2023-04-08T16:31:16;9.4;;;5.1;;
52342;SDS011;38277;51.972;4.624;2023-04-08T16:34:16;9.7;;;5.8;;
52342;SDS011;38277;51.972;4.624;2023-04-08T16:38:31;10.6;;;6.2;;
52342;SDS011;38277;51.972;4.624;2023-04-08T16:43:23;10.4;;;6.4;;
52342;SDS011;38277;51.972;4.624;2023-04-08T16:49:26;11.9;;;6.8;;
52342;SDS011;38277;51.972;4.624;2023-04-08T16:52:00;10.9;;;6.2;;
52342;SDS011;38277;51.972;4.624;2023-04-08T16:56:27;10.4;;;6.1;;
52342;SDS011;38277;51.972;4.624;2023-04-08T17:01:22;9.7;;;5.2;;
52342;SDS011;38277;51.972;4.624;2023-04-08T17:07:25;9.9;;;5.3;;
52342;SDS011;38277;51.972;4.624;2023-04-08T17:10:06;7.6;;;4.9;;
52342;SDS011;38277;51.972;4.624;2023-04-08T17:14:47;8.2;;;4.6;;
52342;SDS011;38277;51.972;4.624;2023-04-08T17:19:21;8.5;;;4.2;;
52342;SDS011;38277;51.972;4.624;2023-04-08T17:25:23;6.1;;;3.2;;
52342;SDS011;38277;51.972;4.624;2023-04-08T17:27:59;7.4;;;4.1;;
52342;SDS011;38277;51.972;4.624;2023-04-08T17:32:26;6.8;;;3.5;;
52342;SDS011;38277;51.972;4.624;2023-04-08T17:37:24;4.3;;;3.1;;
52342;SDS011;38277;51.972;4.624;2023-04-08T17:43:07;6.3;;;3.3;;
52342;SDS011;38277;51.972;4.624;2023-04-08T17:46:02;7.0;;;4.1;;
52342;SDS011;38277;51.972;4.624;2023-04-08T17:50:31;8.3;;;4.6;;
52342;SDS011;38277;51.972;4.624;2023-04-08T17:55:00;8.7;;;4.6;;
52342;SDS011;38277;51.972;4.624;2023-04-08T18:01:22;10.3;;;6.2;;
52342;SDS011;38277;51.972;4.624;2023-04-08T18:04:02;11.0;;;6.2;;
52342;SDS011;38277;51.972;4.624;2023-04-08T18:08:27;12.6;;;6.8;;
52342;SDS011;38277;51.972;4.624;2023-04-08T18:14:38;13.8;;;7.5;;
52342;SDS011;38277;51.972;4.624;2023-04-08T18:19:33;14.0;;;7.8;;
52342;SDS011;38277;51.972;4.624;2023-04-08T18:22:11;12.4;;;7.1;;
52342;SDS011;38277;51.972;4.624;2023-04-08T18:28:11;14.5;;;7.2;;
52342;SDS011;38277;51.972;4.624;2023-04-08T18:31:13;15.5;;;8.2;;
52342;SDS011;38277;51.972;4.624;2023-04-08T18:37:16;12.8;;;7.5;;
52342;SDS011;38277;51.972;4.624;2023-04-08T18:40:17;14.4;;;8.4;;
52342;SDS011;38277;51.972;4.624;2023-04-08T18:44:26;14.4;;;8.4;;
52342;SDS011;38277;51.972;4.624;2023-04-08T18:49:23;15.4;;;9.1;;
52342;SDS011;38277;51.972;4.624;2023-04-08T18:55:17;17.3;;;9.9;;
52342;SDS011;38277;51.972;4.624;2023-04-08T18:58:13;18.4;;;10.8;;
52342;SDS011;38277;51.972;4.624;2023-04-08T19:02:51;20.2;;;12.1;;
52342;SDS011;38277;51.972;4.624;2023-04-08T19:07:02;17.5;;;10.8;;
52342;SDS011;38277;51.972;4.624;2023-04-08T19:13:27;18.5;;;10.9;;
52342;SDS011;38277;51.972;4.624;2023-04-08T19:16:07;17.8;;;10.2;;
52342;SDS011;38277;51.972;4.624;2023-04-08T19:20:46;16.5;;;10.1;;
52342;SDS011;38277;51.972;4.624;2023-04-08T19:25:19;18.5;;;12.3;;
52342;SDS011;38277;51.972;4.624;2023-04-08T19:31:13;22.5;;;13.8;;
52342;SDS011;38277;51.972;4.624;2023-04-08T19:34:09;21.1;;;12.4;;
52342;SDS011;38277;51.972;4.624;2023-04-08T19:38:50;20.2;;;12.1;;
52342;SDS011;38277;51.972;4.624;2023-04-08T19:43:14;20.8;;;12.6;;
52342;SDS011;38277;51.972;4.624;2023-04-08T19:49:25;18.6;;;11.4;;
52342;SDS011;38277;51.972;4.624;2023-04-08T19:52:17;19.1;;;12.6;;
52342;SDS011;38277;51.972;4.624;2023-04-08T19:56:50;18.5;;;11.0;;
52342;SDS011;38277;51.972;4.624;2023-04-08T20:01:14;18.6;;;11.6;;
52342;SDS011;38277;51.972;4.624;2023-04-08T20:07:09;19.8;;;11.8;;
52342;SDS011;38277;51.972;4.624;2023-04-08T20:09:56;21.1;;;13.4;;
52342;SDS011;38277;51.972;4.624;2023-04-08T20:14:30;19.4;;;11.8;;
52342;SDS011;38277;51.972;4.624;2023-04-08T20:18:58;18.8;;;11.7;;
52342;SDS011;38277;51.972;4.624;2023-04-08T20:31:02;21.6;;;13.1;;
52342;SDS011;38277;51.972;4.624;2023-04-08T20:37:22;20.3;;;12.6;;
52342;SDS011;38277;51.972;4.624;2023-04-08T20:43:24;20.1;;;12.5;;
52342;SDS011;38277;51.972;4.624;2023-04-08T20:53:55;20.0;;;12.8;;
52342;SDS011;38277;51.972;4.624;2023-04-08T20:56:57;19.6;;;12.1;;
52342;SDS011;38277;51.972;4.624;2023-04-08T21:04:16;19.4;;;12.2;;
52342;SDS011;38277;51.972;4.624;2023-04-08T21:10:18;21.1;;;12.8;;
52342;SDS011;38277;51.972;4.624;2023-04-08T21:20:54;21.4;;;12.8;;
52342;SDS011;38277;51.972;4.624;2023-04-08T21:26:57;21.9;;;13.0;;
52342;SDS011;38277;51.972;4.624;2023-04-08T21:31:10;20.0;;;12.0;;
52342;SDS011;38277;51.972;4.624;2023-04-08T21:37:12;21.9;;;13.6;;
52342;SDS011;38277;51.972;4.624;2023-04-08T21:47:33;21.4;;;13.3;;
52342;SDS011;38277;51.972;4.624;2023-04-08T21:53:35;21.7;;;14.0;;
52342;SDS011;38277;51.972;4.624;2023-04-08T22:01:09;21.2;;;13.2;;
52342;SDS011;38277;51.972;4.624;2023-04-08T22:04:10;19.9;;;12.9;;
52342;SDS011;38277;51.972;4.624;2023-04-08T22:13:13;21.1;;;13.4;;
52342;SDS011;38277;51.972;4.624;2023-04-08T22:16:14;20.9;;;13.2;;
52342;SDS011;38277;51.972;4.624;2023-04-08T22:22:16;20.4;;;13.1;;
52342;SDS011;38277;51.972;4.624;2023-04-08T22:38:40;20.8;;;12.7;;
52342;SDS011;38277;51.972;4.624;2023-04-08T22:42:56;18.5;;;11.8;;
52342;SDS011;38277;51.972;4.624;2023-04-08T22:48:59;19.8;;;12.2;;
52342;SDS011;38277;51.972;4.624;2023-04-08T22:58:02;18.4;;;11.2;;
52342;SDS011;38277;51.972;4.624;2023-04-08T23:04:04;19.7;;;11.3;;
52342;SDS011;38277;51.972;4.624;2023-04-08T23:07:05;21.3;;;13.2;;
52342;SDS011;38277;51.972;4.624;2023-04-08T23:14:51;20.8;;;13.9;;
52342;SDS011;38277;51.972;4.624;2023-04-08T23:20:53;21.7;;;13.5;;
52342;SDS011;38277;51.972;4.624;2023-04-08T23:31:26;20.2;;;12.4;;
52342;SDS011;38277;51.972;4.624;2023-04-08T23:34:27;21.2;;;13.2;;
52342;SDS011;38277;51.972;4.624;2023-04-08T23:41:36;22.2;;;13.4;;
52342;SDS011;38277;51.972;4.624;2023-04-08T23:47:38;20.4;;;12.7;;
52342;SDS011;38277;51.972;4.624;2023-04-08T23:58:03;22.3;;;14.1;;
